Weather observations for the past three days for
COLEMAN
Metric (Imperial)
Date Time (cdt) Wind (kph) Vis. (km) Weather Sky Cond. Temperature (ºC) Relative Humidity Wind Chill (°C) Heat Index (°C) Pressure Precipitation (cm)
Air Dwpt 6 hour altimeter (cm) sea level (mb) 1 hr 3 hr 6 hr
Max. Min.
06 11:55 SE 6 16.09 Mostly Cloudy SCT055 SCT065 BKN090 34.4 16.6 35% 35 76.23 0.0
06 11:35 E 7 16.09 Mostly Cloudy SCT055 BKN100 34 16.5 35% 34 76.23 0.0
06 11:15 SE 9 16.09 Mostly Cloudy BKN100 32.9 17.1 39% 33 76.23 0.0
06 10:55 SE 6 16.09 Mostly Cloudy BKN100 32.4 16.8 39% 33 76.23 0.0
06 10:35 Calm 16.09 Partly Cloudy SCT100 31.9 18 44% 33 76.23 0.0
06 10:15 Calm 16.09 Fair CLR 31.4 18.5 46% 33 76.23 0.0
06 09:55 Calm 16.09 Fair CLR 30.4 18.6 49% 32 76.2 0.0
06 09:35 NW 6 16.09 Fair CLR 29.6 18.5 51% 31 76.2 0.0
06 09:15 Calm 16.09 Partly Cloudy SCT100 28.3 17.9 53% 29 76.2 0.0
06 08:55 Calm 16.09 Partly Cloudy SCT100 27.2 17.8 57% 28 76.2 0.0
06 08:35 Calm 16.09 Fair CLR 26 17.7 60% 27 76.2 0.0
06 08:15 Calm 16.09 Fair CLR 24.2 17.5 66% 25 76.2 0.0
06 07:55 Calm 16.09 Fair CLR 22.6 17.2 72% 76.17 0.0
06 07:35 Calm 16.09 Fair CLR 22.1 16.8 72% 76.17 0.0
06 07:15 Calm 16.09 Fair CLR 22.6 17 71% 76.15 0.0
06 06:55 Calm 16.09 Fair CLR 22.5 17.2 28.5 22.2 72% 76.12 0.0
06 06:35 Calm 16.09 Fair CLR 22.7 17.5 73% 76.12 0.0
06 06:15 Calm 16.09 Fair CLR 23.9 17.5 68% 25 76.12 0.0
06 05:55 Calm 16.09 Fair CLR 23.8 17.6 68% 76.1 0.0
06 05:35 Calm 16.09 Fair CLR 24 17.7 68% 25 76.1 0.0
06 05:15 S 6 16.09 Fair CLR 23.2 17.2 69% 76.1 0.0
06 04:55 Calm 16.09 Fair CLR 24.2 17.5 66% 25 76.1 0.0
06 04:35 Calm 16.09 Fair CLR 24.2 17.5 66% 25 76.07 0.0
06 04:15 Calm 16.09 Fair CLR 24.6 17.5 65% 26 76.05 0.0
06 03:55 Calm 16.09 Fair CLR 25 17.5 63% 26 76.07 0.0
06 03:35 Calm 16.09 Fair CLR 25 17.5 63% 26 76.05 0.0
06 03:15 Calm 16.09 Fair CLR 25.1 17.5 63% 26 76.07 0.0
06 02:55 S 6 16.09 Fair CLR 25.7 17.5 61% 27 76.07 0.0
06 02:35 S 7 16.09 Fair CLR 26.2 17.5 59% 27 76.07 0.0
06 02:15 S 9 16.09 Fair CLR 26.8 17.5 57% 28 76.1 0.0
06 01:55 S 11 16.09 Fair CLR 27.3 17.5 55% 28 76.1 0.0
06 01:35 SE 9 16.09 Fair CLR 27.6 17.2 53% 28 76.1 0.0
06 01:15 SE 15 16.09 Fair CLR 28 17 51% 29 76.12 0.0
06 00:55 SE 13 16.09 Fair CLR 28.5 16.7 35.4 28.1 49% 29 76.12 0.0
06 00:35 SE 15 G 28 16.09 Fair CLR 29.1 16.5 47% 29 76.12 0.0
06 00:15 SE 15 16.09 Fair CLR 29.2 15.1 42% 29 76.12 0.0
05 23:55 S 9 16.09 Fair CLR 29 14.9 42% 29 76.1 0.0
05 23:35 SE 11 16.09 Fair CLR 28.9 15 43% 29 76.12 0.0
05 23:15 SE 7 16.09 Fair CLR 29 14.8 42% 29 76.1 0.0
05 22:55 SE 7 16.09 Fair CLR 28.7 14.7 42% 29 76.1 0.0
05 22:35 SE 6 16.09 Fair CLR 28.4 14.5 43% 28 76.1 0.0
05 22:15 SE 6 16.09 Fair CLR 28.5 14.4 42% 28 76.07 0.0
05 21:55 SE 6 16.09 Fair CLR 28.7 14.5 42% 28 76.05 0.0
05 21:35 SE 7 16.09 Fair CLR 28.9 14.6 42% 29 76.02 0.0
05 21:15 SE 9 16.09 Fair CLR 30.2 14.3 38% 30 76.02 0.0
05 20:55 SE 7 16.09 Fair CLR 31.1 14 35% 30 76 0.0
05 20:35 SE 11 16.09 Fair CLR 31.9 14.1 34% 31 75.97 0.0
05 20:15 SE 9 16.09 Fair CLR 32.1 14.1 34% 31 75.95 0.0
05 19:55 SE 15 16.09 Fair CLR 33.5 14.1 31% 33 75.92 0.0
05 19:35 SE 15 16.09 Fair CLR 34 14.4 31% 33 75.92 0.0
05 19:15 SE 20 16.09 Fair CLR 34.9 14.2 29% 34 75.92 0.0
05 18:55 SE 28 G 33 16.09 Fair CLR 35.5 14.1 37.8 34.1 28% 35 75.92 0.0
05 18:35 SE 13 G 30 16.09 Fair CLR 36 13.7 26% 35 75.9 0.0
05 18:15 E 19 G 26 16.09 Fair CLR 36.3 13.7 26% 36 75.9 0.0
05 17:55 E 13 16.09 Fair CLR 36.6 13.4 25% 36 75.9 0.0
05 17:35 E 11 16.09 Partly Cloudy SCT080 36.8 13.8 25% 36 75.9 0.0
05 17:15 E 13 16.09 Fair CLR 35.7 14.3 28% 35 75.9 0.0
05 16:55 E 11 G 26 16.09 Fair CLR 36.6 14.5 27% 36 75.92 0.0
05 16:35 SE 9 16.09 Partly Cloudy SCT070 35.2 15.3 30% 35 75.92 0.0
05 16:15 E 22 G 30 16.09 Partly Cloudy SCT070 SCT085 36.5 15.6 29% 37 75.92 0.0
05 15:55 E 19 G 28 16.09 Mostly Cloudy BKN070 BKN085 36.8 15.7 28% 37 75.95 0.0
05 15:35 SE 11 16.09 Mostly Cloudy BKN070 37.7 16.4 28% 38 75.97 0.0
05 15:15 S 9 16.09 Partly Cloudy SCT070 36.9 16.1 29% 37 76 0.0
05 14:55 Calm 16.09 Partly Cloudy SCT070 SCT100 36.5 16.1 30% 37 76.02 0.0
05 12:55 SE 15 16.09 Partly Cloudy SCT048 SCT060 34.1 16.7 34.5 20.8 35% 34 76.17 0.0
05 12:35 S 13 16.09 Partly Cloudy SCT046 SCT060 33.4 18.4 41% 35 76.2 0.0
05 12:15 Calm 16.09 Fair CLR 33 19.2 44% 35 76.23 0.0
05 11:55 SW 7 16.09 Fair CLR 32.4 20 48% 35 76.23 0.0
05 11:35 Calm 16.09 Fair CLR 31.9 19.8 49% 34 76.23 0.0
05 11:15 SW 6 16.09 Fair CLR 30.8 20 53% 33 76.23 0.0
05 10:55 SW 6 16.09 Fair CLR 30 19.9 55% 32 76.23 0.0
05 10:35 S 9 16.09 Fair CLR 29.9 19.7 54% 32 76.23 0.0
05 10:15 S 11 16.09 Fair CLR 29.2 19.6 56% 31 76.23 0.0
05 09:55 S 13 16.09 Fair CLR 28.5 19.5 58% 30 76.23 0.0
05 09:35 S 9 16.09 Fair CLR 27.7 19.5 61% 29 76.23 0.0
05 09:15 S 9 16.09 Fair CLR 27 19.5 64% 28 76.23 0.0
05 08:55 S 9 16.09 Fair CLR 26.1 19.5 67% 27 76.23 0.0
05 08:35 Calm 16.09 Fair CLR 24.5 19.2 72% 25 76.23 0.0
05 08:15 Calm 16.09 Fair CLR 23.1 19 78% 76.2 0.0
05 07:55 Calm 16.09 Fair CLR 21.9 18.5 81% 76.17 0.0
05 07:35 Calm 16.09 Fair CLR 21 18 83% 76.17 0.0
05 07:15 Calm 16.09 Fair CLR 20.9 17.6 82% 76.17 0.0
05 06:55 Calm 16.09 Fair CLR 21.5 18 26.8 21.1 81% 76.15 0.0
05 06:35 Calm 16.09 Fair CLR 21.3 17.5 79% 76.12 0.0
05 06:15 Calm 16.09 Fair CLR 22.3 18.1 77% 76.15 0.0
05 05:55 Calm 16.09 Fair CLR 22.3 18 77% 76.15 0.0
05 05:35 Calm 16.09 Fair CLR 22.6 18.2 76% 76.15 0.0
05 05:15 Calm 16.09 Fair CLR 23.1 18.5 75% 76.15 0.0
05 04:55 Calm 16.09 Fair CLR 23.3 18.5 75% 76.15 0.0
05 04:35 S 6 16.09 Fair CLR 23.6 18.5 73% 76.12 0.0
05 04:15 Calm 16.09 Fair CLR 24 18.5 71% 25 76.12 0.0
05 03:55 S 7 16.09 Fair CLR 24.3 18.3 69% 25 76.12 0.0
05 03:35 S 9 16.09 Fair CLR 24.6 18.3 68% 26 76.12 0.0
05 03:15 S 9 16.09 Fair CLR 24.9 18.4 67% 26 76.12 0.0
05 02:55 S 9 16.09 Fair CLR 25 18.3 66% 26 76.12 0.0
05 02:35 S 9 16.09 Fair CLR 25.2 18.3 66% 26 76.12 0.0
05 02:15 S 7 16.09 Fair CLR 25.5 18.2 64% 27 76.15 0.0
05 01:55 S 11 16.09 Fair CLR 26 18.2 62% 27 76.15 0.0
05 01:35 SE 7 16.09 Fair CLR 26.1 18 61% 27 76.15 0.0
05 01:15 SE 9 16.09 Fair CLR 26.5 18.1 60% 27 76.15 0.0
05 00:55 SE 9 16.09 Fair CLR 26.8 18 32.7 26.8 59% 28 76.12 0.0
05 00:35 S 11 16.09 Fair CLR 27.1 18.1 58% 28 76.12 0.0
05 00:15 S 11 16.09 Fair CLR 27.3 18.1 57% 28 76.12 0.0
04 23:55 S 11 16.09 Fair CLR 27.4 18.1 57% 28 76.12 0.0
04 23:35 S 13 16.09 Fair CLR 27.8 18 55% 29 76.12 0.0
04 23:15 S 11 16.09 Fair CLR 28 18 55% 29 76.12 0.0
04 22:55 S 11 16.09 Fair CLR 28 17.3 52% 29 76.12 0.0
04 22:35 S 11 16.09 Fair CLR 28 16.5 50% 28 76.12 0.0
04 22:15 S 7 16.09 Fair CLR 28 16.1 48% 28 76.1 0.0
04 21:55 S 9 16.09 Fair CLR 29 16 45% 29 76.1 0.0
04 21:35 SE 13 16.09 Fair CLR 28.8 16 46% 29 76.07 0.0
04 21:15 SE 9 16.09 Fair CLR 28.1 16.2 48% 28 76.07 0.0
04 20:55 S 6 16.09 Fair CLR 28.9 16.1 46% 29 76.05 0.0
04 20:35 SE 9 16.09 Fair CLR 30 16.1 43% 30 76.05 0.0
04 20:15 SE 7 16.09 Fair CLR 30.6 16 41% 31 76.02 0.0
04 19:55 SE 11 16.09 Fair CLR 31.3 15.8 39% 31 76.02 0.0
04 19:35 S 15 16.09 Fair CLR 31.8 15.9 38% 32 76.02 0.0
04 19:15 SE 17 16.09 Fair CLR 32.3 16 37% 32 76.05 0.0
04 18:55 SE 19 G 26 16.09 Fair CLR 32.7 16 36.2 31.5 37% 33 76.02 0.0
04 18:35 S 24 G 31 16.09 Fair CLR 33.5 16.1 35% 34 76.02 0.0
04 18:15 SE 22 G 33 16.09 Fair CLR 33.9 16 34% 34 75.97 0.0
04 17:55 SE 26 G 35 16.09 Fair CLR 34.1 16.2 34% 34 75.95 0.0
04 17:35 S 28 G 37 16.09 Fair CLR 34.3 16.4 34% 35 75.95 0.0
04 17:15 S 26 G 37 16.09 Fair CLR 34.6 16.8 35% 35 75.95 0.0
04 16:55 SE 28 G 39 16.09 Fair CLR 34.8 17.3 35% 36 75.95 0.0
04 16:35 SE 24 G 43 16.09 Fair CLR 35.6 17.6 34% 37 75.95 0.0
04 16:15 SE 19 G 30 16.09 Fair CLR 35.7 18 35% 37 75.97 0.0
04 15:55 SE 19 G 30 16.09 Fair CLR 35.6 18.1 35% 37 76 0.0
04 15:35 SE 20 G 31 16.09 Fair CLR 36 17.9 34% 37 76.02 0.0
04 15:15 S 19 G 26 16.09 Fair CLR 35.2 17.4 35% 36 76.05 0.0
04 14:55 S 17 G 28 16.09 Fair CLR 35.4 18 36% 37 76.07 0.0
04 14:35 S 19 G 30 16.09 Fair CLR 33.4 18.3 41% 35 76.1 0.0
04 14:15 S 20 G 28 16.09 Fair CLR 33.1 18.7 42% 34 76.1 0.0
04 13:55 SE 13 G 28 16.09 Fair CLR 32.8 19.2 45% 34 76.1 0.0
04 13:35 S 20 16.09 Fair CLR 33 19.3 44% 35 76.12 0.0
04 13:15 S 15 G 28 16.09 Fair CLR 32 19.3 47% 34 76.15 0.0
04 12:55 S 17 G 30 16.09 Fair CLR 32.5 19.8 32.5 23.7 47% 35 76.15 0.0
04 12:35 S 19 16.09 Fair CLR 31.1 19.9 51% 33 76.17 0.0
04 12:15 S 24 16.09 Fair CLR 30.6 20.3 54% 33 76.2 0.0
04 11:55 SE 22 G 30 16.09 Fair CLR 30 20.2 56% 32 76.2 0.0
04 11:35 S 19 16.09 Fair CLR 29.4 20.3 58% 31 76.2 0.0
04 11:15 S 19 16.09 Fair CLR 28.5 20.3 61% 30 76.2 0.0
04 10:55 S 19 16.09 Partly Cloudy SCT110 28.1 20.2 62% 30 76.2 0.0
04 10:35 S 13 16.09 Partly Cloudy SCT110 27.5 20.1 64% 29 76.2 0.0
04 10:15 S 20 G 30 16.09 Fair CLR 28.3 20.3 62% 30 76.2 0.0
04 09:55 S 19 16.09 Fair CLR 27.8 20.1 63% 29 76.2 0.0
04 09:35 S 17 G 28 16.09 Fair CLR 26.9 19.6 64% 28 76.2 0.0
04 09:15 S 19 G 28 16.09 Fair CLR 26.8 19.5 64% 28 76.2 0.0
04 08:55 S 15 16.09 Fair CLR 26.5 19.4 65% 28 76.2 0.0
04 08:35 SE 19 G 26 16.09 Fair CLR 26.5 19.3 65% 28 76.17 0.0
04 08:15 SE 13 16.09 Partly Cloudy SCT100 25 19.1 70% 26 76.17 0.0
04 07:55 S 9 16.09 Partly Cloudy SCT100 24.6 19 71% 26 76.15 0.0
04 07:35 S 7 16.09 Fair CLR 24.3 19 72% 25 76.12 0.0
04 07:15 S 6 16.09 Fair CLR 24.1 18.9 73% 25 76.1 0.0
04 06:55 SE 7 16.09 Fair CLR 23.6 18.7 28.2 23.5 74% 76.07 0.0
04 06:35 S 6 16.09 Fair CLR 23.5 18.7 75% 76.05 0.0
04 06:15 Calm 16.09 Fair CLR 24 18.9 73% 25 76.05 0.0
04 05:55 Calm 16.09 Fair CLR 24.4 18.9 72% 25 76.05 0.0
04 05:35 S 6 16.09 Fair CLR 24.8 19 70% 26 76.05 0.0
04 05:15 S 9 16.09 Fair CLR 25 19.1 70% 26 76.02 0.0
04 04:55 S 7 16.09 Fair CLR 25.2 19.1 69% 26 76.02 0.0
04 04:35 S 13 16.09 Fair CLR 25.6 19.1 67% 27 76.02 0.0
04 04:15 S 9 16.09 Fair CLR 25.7 19.2 67% 27 76 0.0
04 03:55 S 11 16.09 Fair CLR 25.8 19.2 67% 27 76 0.0
04 03:35 S 13 16.09 Fair CLR 26 19.2 66% 27 76.02 0.0
04 03:15 S 11 16.09 Fair CLR 26.3 19.1 65% 27 76.02 0.0
04 02:55 SE 15 16.09 Fair CLR 26.6 19.1 64% 28 76.02 0.0
04 02:35 SE 11 16.09 Fair CLR 27 19 62% 28 76.02 0.0
04 02:15 SE 13 16.09 Fair CLR 27.1 19 61% 28 76.02 0.0
04 01:55 SE 13 16.09 Fair CLR 27.3 18.9 60% 28 76.05 0.0
04 01:35 SE 11 16.09 Fair CLR 27.6 18.8 59% 29 76.02 0.0
04 01:15 S 13 16.09 Fair CLR 28 18.8 57% 29 76.02 0.0
04 00:55 SE 13 16.09 Fair CLR 28.3 18.8 35.7 28.3 56% 29 76.02 0.0
04 00:35 S 15 16.09 Fair CLR 28.6 19 56% 30 76 0.0
04 00:15 S 17 G 26 16.09 Fair CLR 29 19 55% 30 76 0.0
03 23:55 S 17 16.09 Fair CLR 29.3 19 54% 31 76 0.0
03 23:35 S 20 16.09 Fair CLR 29.8 18.8 52% 31 75.97 0.0
03 23:15 S 22 G 31 16.09 Fair CLR 30.2 18.6 50% 31 75.97 0.0
03 22:55 SE 22 G 30 16.09 Fair CLR 30.6 18.5 48% 32 75.97 0.0
03 22:35 SE 19 G 26 16.09 Fair CLR 31.2 18.5 47% 32 75.97 0.0
03 22:15 S 24 G 41 16.09 Fair CLR 31.7 18.5 45% 33 75.95 0.0
03 21:55 SE 15 G 31 16.09 Fair CLR 32.3 17.3 41% 33 75.92 0.0
03 21:35 SE 17 16.09 Fair CLR 32.1 17 40% 32 75.9 0.0
03 21:15 SE 13 16.09 Fair CLR 31.6 17.5 43% 32 75.87 0.0
03 20:55 SE 9 16.09 Fair CLR 32 17.5 42% 33 75.87 0.0
03 20:35 SE 11 16.09 Fair CLR 32.2 17.5 41% 33 75.84 0.0
03 20:15 SE 15 16.09 Fair CLR 32.7 17.5 40% 33 75.84 0.0
03 19:55 SE 17 16.09 Fair CLR 33.4 17.2 38% 34 75.82 0.0
03 19:35 SE 20 G 31 16.09 Fair CLR 33.8 16.8 36% 34 75.82 0.0
03 19:15 SE 30 G 35 16.09 Fair CLR 34.9 16.6 34% 35 75.82 0.0
03 18:55 E 17 16.09 Fair CLR 35.5 16 40.3 35.5 31% 36 75.79 0.0
03 18:35 E 22 16.09 Fair CLR 35.8 15.7 30% 36 75.79 0.0
03 18:15 E 11 16.09 Fair CLR 37 14 25% 36 75.79 0.0
03 17:55 E 13 16.09 Fair CLR 36.6 14.5 27% 36 75.79 0.0
03 17:35 SE 17 16.09 Partly Cloudy SCT100 37.5 14 25% 37 75.77 0.0
03 17:15 SE 20 G 30 16.09 Mostly Cloudy BKN100 38.5 13.8 23% 38 75.77 0.0
03 16:55 SE 7 16.09 Fair CLR 39.9 13.1 20% 39 75.77 0.0
03 16:35 SE 7 16.09 Fair CLR 40.3 13.4 20% 40 75.77 0.0
03 16:15 E 15 16.09 Partly Cloudy SCT100 40.2 13.3 20% 40 75.79 0.0
03 15:55 N 6 16.09 Fair CLR 40.2 12.9 20% 40 75.82 0.0
03 15:35 S 7 16.09 Fair CLR 38.7 13.5 22% 38 75.84 0.0
03 15:15 E 11 16.09 Fair CLR 39.2 13.6 22% 39 75.84 0.0
03 14:55 NE 6 16.09 Partly Cloudy SCT120 37.4 13.8 24% 37 75.87 0.0
03 14:35 N 7 16.09 Mostly Cloudy SCT085 BKN120 37.3 13.9 25% 37 75.9 0.0
03 14:15 N 9 16.09 Overcast OVC085 37.3 14.2 25% 37 75.92 0.0
03 13:35 S 9 16.09 Fair CLR 39 15.3 25% 39 75.97 0.0
03 13:15 Calm 16.09 Fair CLR 38 15.1 26% 38 76 0.0
03 12:55 SW 13 16.09 Fair CLR 37.7 16.1 37.7 22.6 28% 38 76.02 0.0
03 12:35 W 11 16.09 Fair CLR 37 16.8 30% 38 76.05 0.0
03 12:15 SW 7 16.09 Fair CLR 36.3 17.2 32% 37 76.07 0.0
Date Time (cdt) Wind (kph) Vis. (km) Weather Sky Cond. Air Dwpt Max. Min. Relative Humidity Wind Chill (°C) Heat Index (°C) altimeter (cm) sea level (mb) 1 hr 3 hr 6 hr
6 hour
Temperature (ºC) Pressure Precipitation (cm)